Time;durP1;ratioP1;P1;durP2;ratioP2;P2;SDS_P1;SDS_P2;PMS_P1;PMS_P2;Temp;Humidity;BMP_temperature;BMP_pressure;BME280_temperature;BME280_humidity;BME280_pressure;Samples;Min_cycle;Max_cycle;Signal;HPM_P1;HPM_P2
2024/02/02 00:00:20;;;;;;;15.35;2.85;;;14.70;78.40;;;;;;4154310;28;20184;-41
2024/02/02 00:03:01;;;;;;;13.13;3.25;;;14.70;78.40;;;;;;4154146;28;20048;-42
2024/02/02 00:05:43;;;;;;;16.40;3.72;;;14.70;78.30;;;;;;4154097;28;20381;-41
2024/02/02 00:08:25;;;;;;;;;;;14.70;78.50;;;;;;4154284;28;20048;-41
2024/02/02 00:11:06;;;;;;;14.38;3.30;;;14.70;78.60;;;;;;4153866;28;19932;-41
2024/02/02 00:13:47;;;;;;;18.55;3.85;;;14.70;79.00;;;;;;4154127;28;20187;-41
2024/02/02 00:16:29;;;;;;;13.40;3.28;;;14.70;78.70;;;;;;4154364;28;20094;-41
2024/02/02 00:19:10;;;;;;;18.08;3.92;;;14.60;79.00;;;;;;4154255;28;20084;-42
2024/02/02 00:21:51;;;;;;;12.80;2.95;;;14.60;79.00;;;;;;4153015;28;20043;-40
2024/02/02 00:24:33;;;;;;;16.98;4.53;;;14.60;79.00;;;;;;4153820;28;20460;-43
2024/02/02 00:27:15;;;;;;;16.08;3.13;;;14.60;79.10;;;;;;4154241;28;20056;-43
2024/02/02 00:29:56;;;;;;;12.98;2.90;;;14.60;79.30;;;;;;4153458;28;20060;-43
2024/02/02 00:32:39;;;;;;;17.33;3.85;;;14.60;79.40;;;;;;4152984;28;20444;-42
2024/02/02 00:35:20;;;;;;;16.65;4.35;;;14.60;79.60;;;;;;4153261;28;20604;-42
2024/02/02 00:38:01;;;;;;;13.25;3.58;;;14.60;79.60;;;;;;4139363;28;20176;-42
2024/02/02 00:40:44;;;;;;;12.57;3.45;;;14.60;79.50;;;;;;4152456;28;20175;-42
2024/02/02 00:43:25;;;;;;;17.13;3.42;;;14.60;79.50;;;;;;4151668;28;20051;-42
2024/02/02 00:46:06;;;;;;;18.02;3.63;;;14.60;79.90;;;;;;4136696;28;20061;-42
2024/02/02 00:48:48;;;;;;;16.30;2.95;;;14.60;79.80;;;;;;4137773;28;20057;-42
2024/02/02 00:51:28;;;;;;;13.88;3.85;;;14.60;79.70;;;;;;4149399;28;20476;-42
2024/02/02 00:54:10;;;;;;;12.98;4.13;;;14.50;79.60;;;;;;4153829;28;20055;-43
2024/02/02 00:56:52;;;;;;;13.48;3.45;;;14.50;79.60;;;;;;4153794;28;20124;-42
2024/02/02 00:59:33;;;;;;;12.35;3.58;;;14.50;79.50;;;;;;4150252;28;20056;-42
2024/02/02 01:02:14;;;;;;;19.63;3.88;;;14.50;79.80;;;;;;4153571;28;20056;-42
2024/02/02 01:04:56;;;;;;;17.45;4.47;;;14.50;79.70;;;;;;4153951;28;20052;-42
2024/02/02 01:07:37;;;;;;;14.07;3.17;;;14.50;79.50;;;;;;4153603;28;20052;-42
2024/02/02 01:10:18;;;;;;;14.85;4.30;;;14.50;79.60;;;;;;4153979;28;20474;-42
2024/02/02 01:13:01;;;;;;;16.60;3.55;;;14.50;79.70;;;;;;4137312;28;20053;-43
2024/02/02 01:15:41;;;;;;;15.32;4.57;;;14.50;79.10;;;;;;4137305;28;20057;-40
2024/02/02 01:18:22;;;;;;;10.77;3.15;;;14.50;79.20;;;;;;4137370;28;20194;-41
2024/02/02 01:21:04;;;;;;;16.92;4.10;;;14.60;79.40;;;;;;4135641;28;20838;-41
2024/02/02 01:23:45;;;;;;;14.07;4.05;;;14.60;79.30;;;;;;4145850;28;20056;-40
2024/02/02 01:26:26;;;;;;;11.85;3.10;;;14.60;79.30;;;;;;4156942;28;20195;-41
2024/02/02 01:29:09;;;;;;;16.13;3.95;;;14.60;80.20;;;;;;4156688;28;20566;-41
2024/02/02 01:31:50;;;;;;;12.77;5.07;;;14.70;80.30;;;;;;4154278;28;20053;-41
2024/02/02 01:34:31;;;;;;;15.98;3.80;;;14.80;80.50;;;;;;4154515;28;20048;-41
2024/02/02 01:37:12;;;;;;;17.73;4.75;;;15.00;80.20;;;;;;4156170;28;20076;-41
2024/02/02 01:39:53;;;;;;;15.93;3.97;;;15.10;79.70;;;;;;4141308;28;20092;-41
2024/02/02 01:42:34;;;;;;;11.57;3.45;;;15.10;79.40;;;;;;4140298;28;20099;-41
2024/02/02 01:45:17;;;;;;;12.60;3.63;;;15.20;79.20;;;;;;4139657;28;20103;-41
2024/02/02 01:47:59;;;;;;;14.07;3.92;;;15.20;79.30;;;;;;4140130;28;20057;-41
2024/02/02 01:50:40;;;;;;;;;;;15.30;79.10;;;;;;4144263;28;20140;-41
2024/02/02 01:53:21;;;;;;;17.13;3.95;;;15.40;78.80;;;;;;4156509;28;19932;-41
2024/02/02 01:56:02;;;;;;;18.85;3.83;;;15.50;78.40;;;;;;4139696;28;20057;-41
2024/02/02 01:58:43;;;;;;;12.82;3.83;;;15.50;78.00;;;;;;4151068;28;20059;-41
2024/02/02 02:01:25;;;;;;;12.60;3.95;;;15.50;77.70;;;;;;4139117;28;20484;-41
2024/02/02 02:04:07;;;;;;;15.25;4.15;;;15.50;77.60;;;;;;4156241;28;20054;-41
2024/02/02 02:06:48;;;;;;;13.60;3.42;;;15.50;77.70;;;;;;4155987;28;20509;-41
2024/02/02 02:09:29;;;;;;;13.73;3.00;;;15.50;77.90;;;;;;4156253;28;20555;-41
2024/02/02 02:12:11;;;;;;;10.50;3.42;;;15.60;78.00;;;;;;4139752;28;20065;-41
2024/02/02 02:14:52;;;;;;;13.15;4.05;;;15.70;77.60;;;;;;4139354;28;20104;-41
2024/02/02 02:17:34;;;;;;;13.15;3.97;;;15.70;77.30;;;;;;4139891;28;20247;-41
2024/02/02 02:20:20;;;;;;;14.68;4.53;;;15.70;77.20;;;;;;4145965;28;20057;-41
2024/02/02 02:23:03;;;;;;;11.23;4.13;;;15.70;77.10;;;;;;4155221;28;20152;-41
2024/02/02 02:25:45;;;;;;;15.38;4.70;;;15.70;77.10;;;;;;4155406;28;20052;-42
2024/02/02 02:28:26;;;;;;;17.02;4.47;;;15.70;77.10;;;;;;4154538;28;20048;-41
2024/02/02 02:31:11;;;;;;;11.80;4.50;;;15.80;77.00;;;;;;4152849;28;20061;-42
2024/02/02 02:33:52;;;;;;;14.85;3.95;;;15.80;77.00;;;;;;4155712;28;20110;-42
2024/02/02 02:36:33;;;;;;;12.70;4.50;;;15.80;77.00;;;;;;4154283;28;20056;-42
2024/02/02 02:39:16;;;;;;;13.57;4.07;;;15.90;76.90;;;;;;4155170;28;20075;-42
2024/02/02 02:41:57;;;;;;;16.02;4.63;;;15.90;76.60;;;;;;4153882;28;20072;-41
2024/02/02 02:44:38;;;;;;;14.60;4.00;;;15.90;76.30;;;;;;4155425;28;20411;-41
2024/02/02 02:47:20;;;;;;;14.40;4.25;;;15.90;76.40;;;;;;4155499;28;20056;-41
2024/02/02 02:50:01;;;;;;;16.80;5.20;;;15.90;76.20;;;;;;4154516;28;20072;-41
2024/02/02 02:52:42;;;;;;;13.23;4.40;;;16.00;76.00;;;;;;4155064;28;20057;-42
2024/02/02 02:55:25;;;;;;;18.55;4.97;;;16.00;75.90;;;;;;4153383;28;20180;-42
2024/02/02 02:58:06;;;;;;;14.85;5.63;;;16.00;75.90;;;;;;4153228;28;20080;-42
2024/02/02 03:00:47;;;;;;;14.52;5.57;;;16.10;75.90;;;;;;4153198;28;20052;-41
2024/02/02 03:03:28;;;;;;;20.02;5.03;;;16.10;75.90;;;;;;4153166;28;20308;-42
2024/02/02 03:06:09;;;;;;;17.70;4.85;;;16.10;75.80;;;;;;4155569;28;20068;-42
2024/02/02 03:08:50;;;;;;;15.27;5.03;;;16.00;75.90;;;;;;4154874;28;20057;-42
2024/02/02 03:11:33;;;;;;;12.68;4.10;;;16.10;75.80;;;;;;4153263;28;20195;-42
2024/02/02 03:14:14;;;;;;;15.07;5.35;;;16.20;75.60;;;;;;4149795;28;20060;-42
2024/02/02 03:16:55;;;;;;;12.40;5.45;;;16.20;75.40;;;;;;4155240;28;20072;-42
2024/02/02 03:19:36;;;;;;;15.95;5.75;;;16.20;75.30;;;;;;4149928;28;20052;-42
2024/02/02 03:22:17;;;;;;;14.07;4.78;;;16.10;75.10;;;;;;4152815;28;20391;-42
2024/02/02 03:24:59;;;;;;;13.77;5.43;;;16.10;75.30;;;;;;4154580;28;20056;-41
2024/02/02 03:27:42;;;;;;;16.35;5.32;;;16.10;75.50;;;;;;4154656;28;20064;-42
2024/02/02 03:30:23;;;;;;;15.88;5.30;;;16.10;75.50;;;;;;4151941;28;20088;-42
2024/02/02 03:33:04;;;;;;;17.40;5.10;;;16.10;75.40;;;;;;4154873;28;20049;-42
2024/02/02 03:35:46;;;;;;;16.75;5.00;;;16.10;75.30;;;;;;4153319;28;20064;-42
2024/02/02 03:38:26;;;;;;;13.32;4.78;;;16.10;75.30;;;;;;4154260;28;20072;-42
2024/02/02 03:41:08;;;;;;;17.73;5.18;;;16.10;75.30;;;;;;4152948;28;20056;-42
2024/02/02 03:43:53;;;;;;;18.13;4.95;;;16.00;75.30;;;;;;4152173;28;20057;-42
2024/02/02 03:46:35;;;;;;;17.58;4.85;;;16.00;75.50;;;;;;4153966;28;20163;-42
2024/02/02 03:49:16;;;;;;;14.85;4.85;;;16.00;75.80;;;;;;4139028;28;20505;-42
2024/02/02 03:51:57;;;;;;;16.73;5.45;;;15.90;75.90;;;;;;4154180;28;20056;-41
2024/02/02 03:54:38;;;;;;;14.40;5.10;;;15.90;75.80;;;;;;4154205;28;20052;-42
2024/02/02 03:57:19;;;;;;;22.70;4.90;;;15.90;75.70;;;;;;4152612;28;20052;-42
2024/02/02 04:00:04;;;;;;;16.60;5.30;;;16.00;75.90;;;;;;4152724;28;20048;-47
2024/02/02 04:02:52;;;;;;;13.80;4.50;;;16.00;75.60;;;;;;4133975;28;20061;-42
2024/02/02 04:05:33;;;;;;;;;;;16.10;75.50;;;;;;4154507;28;20079;-42
2024/02/02 04:08:14;;;;;;;16.00;5.00;;;16.10;75.40;;;;;;4137790;28;20675;-46
2024/02/02 04:10:55;;;;;;;17.08;5.38;;;16.10;75.10;;;;;;4147330;28;20068;-42
2024/02/02 04:13:36;;;;;;;12.32;4.05;;;16.20;75.20;;;;;;4153898;28;20135;-42
2024/02/02 04:16:19;;;;;;;17.83;5.28;;;16.10;74.90;;;;;;4153871;28;20052;-42
2024/02/02 04:19:00;;;;;;;18.30;4.28;;;16.10;74.90;;;;;;4154013;28;20060;-42
2024/02/02 04:21:41;;;;;;;12.18;4.75;;;16.10;74.90;;;;;;4153652;28;20056;-42
2024/02/02 04:24:22;;;;;;;15.85;4.32;;;16.10;74.80;;;;;;4153932;28;20150;-42
2024/02/02 04:27:03;;;;;;;14.05;4.07;;;16.10;74.90;;;;;;4154096;28;20494;-42
2024/02/02 04:29:45;;;;;;;13.63;4.43;;;16.10;75.20;;;;;;4153887;28;20107;-42
2024/02/02 04:32:27;;;;;;;16.67;4.43;;;16.10;75.00;;;;;;4135955;28;20099;-42
2024/02/02 04:35:08;;;;;;;12.10;3.58;;;16.20;75.60;;;;;;4129213;28;20081;-42
2024/02/02 04:37:49;;;;;;;14.13;4.75;;;16.20;74.30;;;;;;4142835;28;20049;-41
2024/02/02 04:40:30;;;;;;;11.13;3.58;;;16.30;74.00;;;;;;4148692;28;20098;-41
2024/02/02 04:43:11;;;;;;;20.45;4.63;;;16.30;74.00;;;;;;4142136;28;20056;-41
2024/02/02 04:45:52;;;;;;;14.10;4.13;;;16.30;74.60;;;;;;4152792;28;20052;-42
2024/02/02 04:48:34;;;;;;;15.75;4.82;;;16.40;73.90;;;;;;4153432;28;20083;-42
2024/02/02 04:51:16;;;;;;;18.27;4.93;;;16.30;73.70;;;;;;4152541;28;20052;-42
2024/02/02 04:53:57;;;;;;;18.83;4.35;;;16.40;73.70;;;;;;4138131;28;20049;-41
2024/02/02 04:56:38;;;;;;;16.35;4.30;;;16.30;73.90;;;;;;4153859;28;20571;-41
2024/02/02 04:59:19;;;;;;;13.55;4.55;;;16.30;74.00;;;;;;4156196;28;20064;-41
2024/02/02 05:02:00;;;;;;;17.17;4.18;;;16.20;74.90;;;;;;4157578;28;20060;-42
2024/02/02 05:04:46;;;;;;;14.77;4.38;;;16.20;74.20;;;;;;4150675;28;20043;-42
2024/02/02 05:07:26;;;;;;;16.17;4.38;;;16.20;74.30;;;;;;4142629;28;20052;-41
2024/02/02 05:10:09;;;;;;;10.55;3.55;;;16.10;74.50;;;;;;4155273;28;20496;-41
2024/02/02 05:12:49;;;;;;;12.07;4.03;;;16.00;74.90;;;;;;4155689;28;20413;-42
2024/02/02 05:15:30;;;;;;;17.77;4.68;;;16.00;75.20;;;;;;4153486;28;20056;-48
2024/02/02 05:18:12;;;;;;;16.08;4.00;;;16.10;75.30;;;;;;4156814;28;20122;-51
2024/02/02 05:20:55;;;;;;;17.20;4.90;;;16.10;74.80;;;;;;4154798;28;20059;-47
2024/02/02 05:23:36;;;;;;;15.70;4.93;;;16.20;74.50;;;;;;4147713;28;20061;-47
2024/02/02 05:26:21;;;;;;;17.50;5.15;;;16.30;74.30;;;;;;4155891;28;20051;-47
2024/02/02 05:29:02;;;;;;;15.98;4.03;;;16.30;74.00;;;;;;4151835;28;20080;-46
2024/02/02 05:31:44;;;;;;;10.73;4.97;;;16.40;73.60;;;;;;4139998;28;20188;-50
2024/02/02 05:34:25;;;;;;;17.13;4.80;;;16.50;73.20;;;;;;4139580;28;20104;-47
2024/02/02 05:37:08;;;;;;;13.65;4.20;;;16.60;73.00;;;;;;4134489;28;20143;-47
2024/02/02 05:39:48;;;;;;;17.63;4.68;;;16.60;72.80;;;;;;4147854;28;20163;-48
2024/02/02 05:42:30;;;;;;;15.90;3.78;;;16.70;72.70;;;;;;4141956;28;20049;-48
2024/02/02 05:45:11;;;;;;;15.38;4.07;;;16.60;72.50;;;;;;4156486;28;20060;-47
2024/02/02 05:47:52;;;;;;;20.08;5.18;;;16.60;72.50;;;;;;4156442;28;20187;-47
2024/02/02 05:50:34;;;;;;;13.57;3.70;;;16.60;72.70;;;;;;4154245;28;20052;-47
2024/02/02 05:53:17;;;;;;;16.50;4.05;;;16.50;72.80;;;;;;4154623;28;20056;-46
2024/02/02 05:55:58;;;;;;;16.98;3.92;;;16.50;73.00;;;;;;4154872;28;20088;-47
2024/02/02 05:58:39;;;;;;;10.75;3.67;;;16.50;73.10;;;;;;4155598;28;20183;-47
2024/02/02 06:01:20;;;;;;;16.10;3.47;;;16.50;73.20;;;;;;4155537;28;20088;-46
2024/02/02 06:04:01;;;;;;;16.58;3.70;;;16.50;73.10;;;;;;4155809;28;20052;-46
2024/02/02 06:06:42;;;;;;;10.65;3.15;;;16.50;73.20;;;;;;4155979;28;20095;-47
2024/02/02 06:09:25;;;;;;;21.38;4.07;;;16.50;73.40;;;;;;4137130;28;20065;-48
2024/02/02 06:12:06;;;;;;;16.35;4.50;;;16.50;73.20;;;;;;4155385;28;20064;-47
2024/02/02 06:14:47;;;;;;;14.80;3.67;;;16.50;73.10;;;;;;4156350;28;20060;-46
2024/02/02 06:17:28;;;;;;;16.20;4.30;;;16.50;73.30;;;;;;4155968;28;20057;-49
2024/02/02 06:20:10;;;;;;;15.23;3.33;;;16.40;73.40;;;;;;4140063;28;20199;-46
2024/02/02 06:22:51;;;;;;;19.27;4.15;;;16.40;73.50;;;;;;4155532;28;20096;-48
2024/02/02 06:25:33;;;;;;;12.60;4.03;;;16.50;73.40;;;;;;4155464;28;20052;-49
2024/02/02 06:28:14;;;;;;;14.27;3.83;;;16.50;73.20;;;;;;4155610;28;20524;-46
2024/02/02 06:30:56;;;;;;;22.15;4.55;;;16.50;73.20;;;;;;4155558;28;20114;-46
2024/02/02 06:33:37;;;;;;;15.23;4.18;;;16.50;73.30;;;;;;4155697;28;20417;-47
2024/02/02 06:36:18;;;;;;;14.73;3.35;;;16.50;73.20;;;;;;4155647;28;20072;-46
2024/02/02 06:38:59;;;;;;;18.75;4.65;;;16.40;73.20;;;;;;4155713;28;20134;-46
2024/02/02 06:41:41;;;;;;;12.45;3.00;;;16.40;73.40;;;;;;4136840;28;20052;-48
2024/02/02 06:44:22;;;;;;;20.50;3.88;;;16.30;73.60;;;;;;4139486;28;20160;-46
2024/02/02 06:47:03;;;;;;;16.73;3.33;;;16.20;73.80;;;;;;4153135;28;20103;-48
2024/02/02 06:49:44;;;;;;;15.63;3.35;;;16.20;74.10;;;;;;4155354;28;20056;-48
2024/02/02 06:52:25;;;;;;;19.08;4.40;;;16.20;74.50;;;;;;4153674;28;20091;-48
2024/02/02 06:55:07;;;;;;;14.68;4.53;;;16.20;74.60;;;;;;4155164;28;20087;-46
2024/02/02 06:57:49;;;;;;;;;;;16.30;74.30;;;;;;4135733;28;20092;-42
2024/02/02 07:00:32;;;;;;;19.65;4.25;;;16.40;74.00;;;;;;4144859;28;19991;-42
2024/02/02 07:03:13;;;;;;;18.55;4.22;;;16.40;74.00;;;;;;4155036;28;20198;-46
2024/02/02 07:05:54;;;;;;;16.55;3.38;;;16.60;73.80;;;;;;4153609;28;20517;-42
2024/02/02 07:08:35;;;;;;;19.48;3.40;;;16.60;73.30;;;;;;4149489;28;20167;-42
2024/02/02 07:11:43;;;;;;;19.92;4.35;;;16.70;72.80;;;;;;4151310;28;20513;-42
2024/02/02 07:14:46;;;;;;;13.50;4.07;;;16.80;72.30;;;;;;4154639;28;20406;-42
2024/02/02 07:17:39;;;;;;;22.00;4.25;;;16.80;72.10;;;;;;4153671;28;20449;-42
2024/02/02 07:20:50;;;;;;;26.27;4.88;;;16.90;71.90;;;;;;4147795;28;20053;-42
2024/02/02 07:23:35;;;;;;;14.77;3.70;;;16.90;71.60;;;;;;4161926;28;20456;-42
2024/02/02 07:26:27;;;;;;;15.05;3.78;;;16.90;71.60;;;;;;4153779;28;20067;-42
2024/02/02 07:29:27;;;;;;;17.13;3.80;;;16.80;71.80;;;;;;4153936;28;20627;-42
2024/02/02 07:32:17;;;;;;;20.83;3.90;;;16.80;72.00;;;;;;4137416;28;20061;-43
2024/02/02 07:34:58;;;;;;;17.52;4.53;;;16.70;72.30;;;;;;4138644;28;20604;-44
2024/02/02 07:37:47;;;;;;;21.58;4.25;;;16.70;72.50;;;;;;4143847;28;20050;-43
2024/02/02 07:40:53;;;;;;;15.85;3.13;;;16.70;72.00;;;;;;4145604;28;20052;-45
2024/02/02 07:43:34;;;;;;;18.63;4.38;;;16.70;71.20;;;;;;4154204;28;20049;-42
2024/02/02 07:46:15;;;;;;;15.85;4.75;;;16.80;71.10;;;;;;4155443;28;20390;-42
2024/02/02 07:48:58;;;;;;;19.33;3.75;;;16.80;70.90;;;;;;4151956;28;20180;-42
2024/02/02 07:51:43;;;;;;;17.23;4.35;;;16.80;70.40;;;;;;4137658;28;20057;-42
2024/02/02 07:54:24;;;;;;;22.55;4.38;;;16.90;70.30;;;;;;4142930;28;20065;-41
2024/02/02 07:57:05;;;;;;;15.32;3.65;;;16.90;70.00;;;;;;4151843;28;20126;-42
2024/02/02 07:59:46;;;;;;;19.05;4.65;;;16.90;69.80;;;;;;4160698;28;20513;-42
2024/02/02 08:02:27;;;;;;;14.98;4.72;;;17.00;69.70;;;;;;4153777;28;20056;-41
2024/02/02 08:05:10;;;;;;;17.45;3.75;;;17.00;69.30;;;;;;4153299;28;20060;-42
2024/02/02 08:07:51;;;;;;;18.08;4.55;;;17.00;68.80;;;;;;4152626;28;20409;-42
2024/02/02 08:10:32;;;;;;;18.65;4.32;;;17.00;68.90;;;;;;4153672;28;20052;-42
2024/02/02 08:13:15;;;;;;;20.50;4.82;;;17.00;68.90;;;;;;4154035;28;20110;-42
2024/02/02 08:15:57;;;;;;;15.65;4.03;;;16.90;69.20;;;;;;4151825;28;20107;-42
2024/02/02 08:18:38;;;;;;;21.00;4.75;;;16.90;69.20;;;;;;4153635;28;20044;-42
2024/02/02 08:21:21;;;;;;;19.30;4.07;;;16.90;69.20;;;;;;4145063;28;20061;-42
2024/02/02 08:24:03;;;;;;;18.73;4.63;;;16.90;69.00;;;;;;4130776;28;20140;-42
2024/02/02 08:26:44;;;;;;;19.17;4.95;;;16.80;69.20;;;;;;4153812;28;20051;-47
2024/02/02 08:29:25;;;;;;;19.00;4.53;;;16.80;70.00;;;;;;4135833;28;20068;-43
2024/02/02 08:32:07;;;;;;;16.75;4.00;;;16.80;70.20;;;;;;4142805;28;20064;-46
2024/02/02 08:34:48;;;;;;;25.45;4.47;;;16.70;70.30;;;;;;4156670;28;20072;-50
2024/02/02 08:37:30;;;;;;;18.92;4.20;;;16.70;70.80;;;;;;4154557;28;20056;-42
2024/02/02 08:40:24;;;;;;;20.25;4.50;;;16.70;71.30;;;;;;4160556;28;20103;-45
2024/02/02 08:43:08;;;;;;;11.73;3.50;;;16.70;71.00;;;;;;4135353;28;20506;-46
2024/02/02 08:46:09;;;;;;;14.48;4.03;;;16.80;70.60;;;;;;4156072;28;20183;-48
2024/02/02 08:48:51;;;;;;;;;;;16.80;70.60;;;;;;4155844;28;20056;-45
2024/02/02 08:51:51;;;;;;;;;;;16.80;71.40;;;;;;4156684;28;20391;-45
2024/02/02 08:54:45;;;;;;;18.63;4.53;;;16.80;71.40;;;;;;4138894;28;20397;-48
2024/02/02 08:58:07;;;;;;;16.90;4.03;;;16.80;71.40;;;;;;4140089;28;20096;-47
2024/02/02 09:00:49;;;;;;;17.77;4.47;;;16.80;71.00;;;;;;4148402;28;20052;-43
2024/02/02 09:03:43;;;;;;;12.93;3.85;;;16.90;70.60;;;;;;4155874;28;20567;-44
2024/02/02 09:06:42;;;;;;;16.00;3.90;;;16.90;70.70;;;;;;4155956;28;20060;-44
2024/02/02 09:09:23;;;;;;;16.08;4.30;;;16.90;70.30;;;;;;4151650;28;20060;-43
2024/02/02 09:12:06;;;;;;;14.50;4.05;;;16.90;70.30;;;;;;4155493;28;20658;-45
2024/02/02 09:14:48;;;;;;;17.75;4.22;;;16.80;70.10;;;;;;4143556;28;20052;-45
2024/02/02 09:17:31;;;;;;;19.17;3.93;;;16.80;70.20;;;;;;4156344;28;20123;-44
2024/02/02 09:20:40;;;;;;;19.77;4.97;;;16.80;70.40;;;;;;4142846;28;20648;-45
2024/02/02 09:23:21;;;;;;;24.13;4.40;;;16.80;70.20;;;;;;4154649;28;20127;-47
2024/02/02 09:26:08;;;;;;;13.85;4.30;;;16.70;70.40;;;;;;4173965;28;20064;-45
2024/02/02 09:28:51;;;;;;;24.40;4.78;;;16.70;70.40;;;;;;4156562;28;20629;-45
2024/02/02 09:31:36;;;;;;;17.05;4.25;;;16.70;70.40;;;;;;4157529;28;20114;-45
2024/02/02 09:34:24;;;;;;;17.00;4.63;;;16.60;70.30;;;;;;4158430;28;20080;-43
2024/02/02 09:37:09;;;;;;;16.67;4.57;;;16.60;70.30;;;;;;4150558;28;20127;-47
2024/02/02 09:39:54;;;;;;;18.90;3.85;;;16.60;70.90;;;;;;4148952;28;20049;-43
2024/02/02 09:42:56;;;;;;;19.25;4.65;;;16.50;71.40;;;;;;4151194;28;20099;-46
2024/02/02 09:45:59;;;;;;;14.93;4.38;;;16.60;71.30;;;;;;4156226;28;20504;-46
2024/02/02 09:48:55;;;;;;;14.68;4.43;;;16.60;71.50;;;;;;4139777;28;20053;-45
2024/02/02 09:51:45;;;;;;;14.27;4.43;;;16.60;71.30;;;;;;4154778;28;20056;-46
2024/02/02 09:54:36;;;;;;;14.30;4.57;;;16.60;71.30;;;;;;4156349;28;20128;-44
2024/02/02 09:57:32;;;;;;;16.95;3.58;;;16.50;70.90;;;;;;4156129;28;20154;-42
2024/02/02 10:00:24;;;;;;;19.13;4.38;;;16.60;71.20;;;;;;4155933;28;20134;-44
2024/02/02 10:03:24;;;;;;;19.10;4.53;;;16.60;71.60;;;;;;4155623;28;20064;-41
2024/02/02 10:06:17;;;;;;;15.02;3.88;;;16.60;71.70;;;;;;4139533;28;20060;-47
2024/02/02 10:09:12;;;;;;;17.27;4.05;;;16.60;71.80;;;;;;4139205;28;20056;-44
2024/02/02 10:12:15;;;;;;;17.00;3.95;;;16.60;71.60;;;;;;4155901;28;20094;-44
2024/02/02 10:15:20;;;;;;;13.18;3.85;;;16.60;71.50;;;;;;4155640;28;20052;-44
2024/02/02 10:18:25;;;;;;;18.90;4.63;;;16.60;71.30;;;;;;4126467;28;20052;-44
2024/02/02 10:21:12;;;;;;;16.38;3.83;;;16.60;71.40;;;;;;4161105;28;20064;-45
2024/02/02 10:24:16;;;;;;;20.30;4.38;;;16.60;71.30;;;;;;4172820;28;20109;-53
2024/02/02 10:27:17;;;;;;;14.55;3.83;;;16.60;71.20;;;;;;4159158;28;20406;-51
2024/02/02 10:30:09;;;;;;;14.73;3.28;;;16.50;71.40;;;;;;4155388;28;20048;-45
2024/02/02 10:33:09;;;;;;;14.82;3.72;;;16.50;71.30;;;;;;4157990;28;20079;-47
2024/02/02 10:35:59;;;;;;;16.33;4.18;;;16.50;71.50;;;;;;4170871;28;20060;-48
2024/02/02 10:38:55;;;;;;;14.23;3.92;;;16.50;72.00;;;;;;4165025;28;20051;-46
2024/02/02 10:41:52;;;;;;;17.60;3.72;;;16.50;72.00;;;;;;4156355;28;20188;-45
2024/02/02 10:44:47;;;;;;;16.63;4.18;;;16.60;72.20;;;;;;4155045;28;20116;-44
2024/02/02 10:47:46;;;;;;;14.95;4.40;;;16.60;72.10;;;;;;4155629;28;20056;-47
2024/02/02 10:50:35;;;;;;;15.35;3.90;;;16.70;71.90;;;;;;4153619;28;20053;-46
2024/02/02 10:53:30;;;;;;;13.30;4.43;;;16.70;71.60;;;;;;4153933;28;20508;-46
2024/02/02 10:56:26;;;;;;;13.85;3.67;;;16.70;71.70;;;;;;4154379;28;20053;-43
2024/02/02 10:59:20;;;;;;;15.55;3.70;;;16.70;71.80;;;;;;4153750;28;20473;-45
2024/02/02 11:02:08;;;;;;;16.27;3.53;;;16.70;71.80;;;;;;4154423;28;20489;-44
2024/02/02 11:05:01;;;;;;;17.08;4.47;;;16.70;72.20;;;;;;4154562;28;20143;-51
2024/02/02 11:07:47;;;;;;;17.88;3.67;;;16.70;72.30;;;;;;4153904;28;20103;-47
2024/02/02 11:10:36;;;;;;;16.27;3.80;;;16.80;72.30;;;;;;4143898;28;20511;-46
2024/02/02 11:13:25;;;;;;;16.30;4.55;;;16.80;71.90;;;;;;4154404;28;20052;-46
2024/02/02 11:16:20;;;;;;;14.38;4.07;;;16.80;71.60;;;;;;4150238;28;20123;-47
2024/02/02 11:19:14;;;;;;;16.88;4.32;;;16.80;71.60;;;;;;4153574;28;20052;-48
2024/02/02 11:22:13;;;;;;;12.45;3.50;;;16.70;71.90;;;;;;4154644;28;20075;-47
2024/02/02 11:25:06;;;;;;;19.65;4.50;;;16.60;72.50;;;;;;4153237;28;20057;-47
2024/02/02 11:27:59;;;;;;;18.13;3.92;;;16.60;72.40;;;;;;4154379;28;20130;-47
2024/02/02 11:30:57;;;;;;;15.82;4.20;;;16.60;72.40;;;;;;4154005;28;20615;-48
2024/02/02 11:33:47;;;;;;;13.57;3.97;;;16.60;73.30;;;;;;4154522;28;20132;-47
2024/02/02 11:36:42;;;;;;;17.52;4.38;;;16.60;72.50;;;;;;4154934;28;20056;-47
2024/02/02 11:39:39;;;;;;;14.07;4.38;;;16.50;72.50;;;;;;4148294;28;20084;-47
2024/02/02 11:42:22;;;;;;;17.38;4.53;;;16.50;72.60;;;;;;4154546;28;20083;-47
2024/02/02 11:45:07;;;;;;;13.80;4.35;;;16.40;72.70;;;;;;4143430;28;20053;-47
2024/02/02 11:47:54;;;;;;;14.10;4.53;;;16.30;72.80;;;;;;4154877;28;20131;-47
2024/02/02 11:50:41;;;;;;;17.65;4.40;;;16.20;73.20;;;;;;4138640;28;20555;-47
2024/02/02 11:53:31;;;;;;;12.05;3.40;;;16.20;73.50;;;;;;4138766;28;20053;-48
2024/02/02 11:56:19;;;;;;;11.63;3.13;;;16.10;73.70;;;;;;4138844;28;20403;-48
2024/02/02 11:59:06;;;;;;;10.85;3.50;;;16.00;73.90;;;;;;4154679;28;20056;-45
2024/02/02 12:02:03;;;;;;;17.70;3.30;;;16.00;73.80;;;;;;4155678;28;20063;-45
2024/02/02 12:04:46;;;;;;;16.05;3.35;;;16.00;74.50;;;;;;4153053;28;20048;-48
2024/02/02 12:07:35;;;;;;;10.68;2.50;;;16.00;75.50;;;;;;4154562;28;20417;-49
2024/02/02 12:10:20;;;;;;;9.82;3.10;;;15.90;75.90;;;;;;4163922;28;20171;-46
2024/02/02 12:13:03;;;;;;;18.25;3.63;;;16.00;76.50;;;;;;4152665;28;20056;-40
2024/02/02 12:15:45;;;;;;;13.98;3.08;;;16.00;76.00;;;;;;4138281;28;20135;-41
2024/02/02 12:18:27;;;;;;;9.88;3.05;;;16.10;75.70;;;;;;4146944;28;20068;-40
2024/02/02 12:21:15;;;;;;;13.10;3.33;;;16.10;74.90;;;;;;4141377;28;20056;-40
2024/02/02 12:23:56;;;;;;;11.18;3.28;;;16.10;74.60;;;;;;4154238;28;20068;-40
2024/02/02 12:26:39;;;;;;;15.50;3.60;;;16.00;75.20;;;;;;4134955;28;20045;-40
2024/02/02 12:29:21;;;;;;;11.55;3.25;;;16.00;75.40;;;;;;4154158;28;20044;-40
2024/02/02 12:32:03;;;;;;;11.13;3.60;;;16.10;75.70;;;;;;4154574;28;20252;-40
2024/02/02 12:34:46;;;;;;;11.70;2.92;;;16.10;75.10;;;;;;4130824;28;20108;-40
2024/02/02 12:37:27;;;;;;;13.30;4.00;;;16.20;74.90;;;;;;4128847;28;20073;-40
2024/02/02 12:40:09;;;;;;;11.73;2.63;;;16.20;74.60;;;;;;4138166;28;20065;-40
2024/02/02 12:42:52;;;;;;;11.82;3.40;;;16.20;74.50;;;;;;4138333;28;20513;-40
2024/02/02 12:45:33;;;;;;;15.40;3.80;;;16.20;74.60;;;;;;4138319;28;20048;-40
2024/02/02 12:48:15;;;;;;;11.38;3.70;;;16.10;74.60;;;;;;4150006;28;20056;-40
2024/02/02 12:51:00;;;;;;;11.00;3.00;;;16.10;74.60;;;;;;4153680;28;20056;-40
2024/02/02 12:53:41;;;;;;;12.07;3.72;;;16.30;74.20;;;;;;4153982;28;20060;-40
2024/02/02 12:56:23;;;;;;;9.18;3.78;;;16.30;73.70;;;;;;4152583;28;20060;-42
2024/02/02 12:59:05;;;;;;;9.23;3.53;;;16.30;73.40;;;;;;4151814;28;20493;-49
2024/02/02 13:01:47;;;;;;;8.18;2.80;;;16.40;73.20;;;;;;4153942;28;20084;-48
2024/02/02 13:04:29;;;;;;;15.85;3.42;;;16.50;72.70;;;;;;4153710;28;20187;-50
2024/02/02 13:07:11;;;;;;;18.08;3.92;;;16.60;72.30;;;;;;4152470;28;20139;-49
2024/02/02 13:09:55;;;;;;;14.75;3.58;;;16.60;72.10;;;;;;4153700;28;20072;-48
2024/02/02 13:12:45;;;;;;;8.60;2.65;;;16.60;72.00;;;;;;4153314;28;20568;-49
2024/02/02 13:15:30;;;;;;;11.57;3.38;;;16.50;71.80;;;;;;4153008;28;20053;-50
2024/02/02 13:18:13;;;;;;;11.00;2.83;;;16.50;72.00;;;;;;4156852;28;20060;-48
2024/02/02 13:20:54;;;;;;;10.65;3.35;;;16.50;72.20;;;;;;4157329;28;20501;-54
2024/02/02 13:23:38;;;;;;;;;;;16.50;72.10;;;;;;4156811;28;20567;-51
2024/02/02 13:26:22;;;;;;;11.23;3.38;;;16.50;72.30;;;;;;4156756;28;20059;-50
2024/02/02 13:29:07;;;;;;;10.15;3.83;;;16.50;72.10;;;;;;4156268;28;20164;-51
2024/02/02 13:31:49;;;;;;;13.63;4.35;;;16.40;72.10;;;;;;4139617;28;20124;-54
2024/02/02 13:34:30;;;;;;;12.52;3.38;;;16.30;72.40;;;;;;4156852;28;20049;-52
2024/02/02 13:37:24;;;;;;;18.80;3.60;;;16.20;72.80;;;;;;4139898;28;20072;-54
2024/02/02 13:40:09;;;;;;;12.85;3.80;;;16.20;73.90;;;;;;4154466;28;20067;-51
2024/02/02 13:42:52;;;;;;;7.53;3.20;;;16.20;73.10;;;;;;4156548;28;20401;-50
2024/02/02 13:45:33;;;;;;;11.95;3.90;;;16.30;72.90;;;;;;4157159;28;20160;-55
2024/02/02 13:48:16;;;;;;;9.38;3.88;;;16.30;72.80;;;;;;4156412;28;20049;-54
2024/02/02 13:51:00;;;;;;;8.30;3.70;;;16.30;72.90;;;;;;4156405;28;20056;-52
2024/02/02 13:53:41;;;;;;;11.05;4.05;;;16.20;73.00;;;;;;4154289;28;20048;-55
2024/02/02 13:56:25;;;;;;;10.30;4.05;;;16.20;73.20;;;;;;4156368;28;20052;-51
2024/02/02 13:59:06;;;;;;;13.50;5.28;;;16.10;73.30;;;;;;4156406;28;20117;-52
2024/02/02 14:01:48;;;;;;;12.07;3.90;;;16.20;73.70;;;;;;4156189;28;20052;-53
2024/02/02 14:04:29;;;;;;;13.30;5.40;;;16.30;73.50;;;;;;4155150;28;20072;-50
2024/02/02 14:07:15;;;;;;;7.63;3.90;;;16.40;72.80;;;;;;4156190;28;20065;-50